Time;durP1;ratioP1;P1;durP2;ratioP2;P2;SDS_P1;SDS_P2;PMS_P1;PMS_P2;Temp;Humidity;BMP_temperature;BMP_pressure;BME280_temperature;BME280_humidity;BME280_pressure;Samples;Min_cycle;Max_cycle;Signal;HPM_P1;HPM_P2
2021/12/19 00:01:46;;;;;;;;;;;;;;;;;;4132410;28;7112;-53
2021/12/19 00:04:20;;;;;;;;;;;;;;;;;;4132589;28;7481;-53
2021/12/19 00:09:21;;;;;;;;;;;;;;;;;;4133145;28;7015;-54
2021/12/19 00:11:42;;;;;;;;;;;;;;;;;;4133639;28;7038;-53
2021/12/19 00:14:03;;;;;;;;;;;;;;;;;;4133622;28;6995;-54
2021/12/19 00:16:24;;;;;;;;;;;;;;;;;;4133764;28;7134;-55
2021/12/19 00:18:47;;;;;;;;;;;;;;;;;;4133829;28;7053;-53
2021/12/19 00:21:10;;;;;;;;;;;;;;;;;;4133644;28;7031;-53
2021/12/19 00:23:31;;;;;;;;;;;;;;;;;;4133600;28;7455;-53
2021/12/19 00:25:53;;;;;;;;;;;;;;;;;;4133808;28;7407;-53
2021/12/19 00:28:14;;;;;;;;;;;;;;;;;;4133384;28;7023;-54
2021/12/19 00:30:36;;;;;;;;;;;;;;;;;;4133581;28;7494;-54
2021/12/19 00:32:57;;;;;;;;;;;;;;;;;;4133458;28;7051;-53
2021/12/19 00:35:20;;;;;;;;;;;;;;;;;;4133282;28;7097;-54
2021/12/19 00:37:41;;;;;;;;;;;;;;;;;;4133459;28;7023;-54
2021/12/19 00:40:03;;;;;;;;;;;;;;;;;;4133582;28;7160;-53
2021/12/19 00:42:28;;;;;;;;;;;;;;;;;;4133437;28;7029;-53
2021/12/19 00:44:50;;;;;;;;;;;;;;;;;;4133364;28;7363;-54
2021/12/19 00:47:11;;;;;;;;;;;;;;;;;;4133582;28;6987;-54
2021/12/19 00:49:33;;;;;;;;;;;;;;;;;;4133253;28;7173;-53
2021/12/19 00:51:56;;;;;;;;;;;;;;;;;;4133478;28;6988;-53
2021/12/19 00:54:16;;;;;;;;;;;;;;;;;;4133211;28;6990;-54
2021/12/19 00:56:38;;;;;;;;;;;;;;;;;;4132908;28;7013;-53
2021/12/19 00:59:00;;;;;;;;;;;;;;;;;;4132941;28;7026;-54
2021/12/19 01:01:21;;;;;;;;;;;;;;;;;;4133197;28;6995;-53
2021/12/19 01:03:44;;;;;;;;;;;;;;;;;;4132433;28;7175;-54
2021/12/19 01:06:05;;;;;;;;;;;;;;;;;;4133180;28;7041;-54
2021/12/19 01:08:28;;;;;;;;;;;;;;;;;;4133016;28;7002;-54
2021/12/19 01:10:49;;;;;;;;;;;;;;;;;;4132886;28;7006;-53
2021/12/19 01:13:10;;;;;;;;;;;;;;;;;;4132800;28;7013;-54
2021/12/19 01:15:32;;;;;;;;;;;;;;;;;;4132921;28;7008;-53
2021/12/19 01:17:53;;;;;;;;;;;;;;;;;;4132581;28;6990;-54
2021/12/19 01:20:15;;;;;;;;;;;;;;;;;;4133022;28;7002;-54
2021/12/19 01:22:36;;;;;;;;;;;;;;;;;;4132991;28;7010;-54
2021/12/19 01:24:59;;;;;;;;;;;;;;;;;;4132682;28;7417;-54
2021/12/19 01:27:21;;;;;;;;;;;;;;;;;;4132559;28;7148;-54
2021/12/19 01:29:42;;;;;;;;;;;;;;;;;;4132829;28;7398;-54
2021/12/19 01:32:04;;;;;;;;;;;;;;;;;;4132471;28;7006;-53
2021/12/19 01:34:26;;;;;;;;;;;;;;;;;;4132634;28;7022;-54
2021/12/19 01:36:47;;;;;;;;;;;;;;;;;;4132622;28;7165;-54
2021/12/19 01:39:08;;;;;;;;;;;;;;;;;;4132535;28;7006;-54
2021/12/19 01:41:31;;;;;;;;;;;;;;;;;;4132405;28;7010;-53
2021/12/19 01:43:53;;;;;;;;;;;;;;;;;;4132364;28;7235;-54
2021/12/19 01:46:14;;;;;;;;;;;;;;;;;;4132431;28;7007;-54
2021/12/19 01:48:35;;;;;;;;;;;;;;;;;;4132318;28;7170;-54
2021/12/19 01:50:57;;;;;;;;;;;;;;;;;;4132405;28;7011;-54
2021/12/19 01:53:18;;;;;;;;;;;;;;;;;;4132194;28;7006;-54
2021/12/19 01:55:39;;;;;;;;;;;;;;;;;;4132207;28;6986;-54
2021/12/19 01:58:02;;;;;;;;;;;;;;;;;;4131678;28;8015;-54
2021/12/19 02:03:53;;;;;;;;;;;;;;;;;;4131226;28;7104;-53
2021/12/19 02:06:15;;;;;;;;;;;;;;;;;;4131219;28;7027;-54
2021/12/19 02:08:36;;;;;;;;;;;;;;;;;;4131438;28;7182;-54
2021/12/19 02:10:57;;;;;;;;;;;;;;;;;;4131241;28;7058;-54
2021/12/19 02:13:20;;;;;;;;;;;;;;;;;;4131317;28;7141;-54
2021/12/19 02:15:41;;;;;;;;;;;;;;;;;;4130435;28;7030;-53
2021/12/19 02:18:03;;;;;;;;;;;;;;;;;;4131356;28;7020;-54
2021/12/19 02:20:26;;;;;;;;;;;;;;;;;;4131230;28;7007;-54
2021/12/19 02:22:47;;;;;;;;;;;;;;;;;;4131527;28;7019;-54
2021/12/19 02:25:09;;;;;;;;;;;;;;;;;;4131171;28;7019;-54
2021/12/19 02:27:31;;;;;;;;;;;;;;;;;;4131376;28;7056;-54
2021/12/19 02:29:52;;;;;;;;;;;;;;;;;;4131349;28;7006;-54
2021/12/19 02:32:13;;;;;;;;;;;;;;;;;;4131252;28;7004;-55
2021/12/19 02:34:41;;;;;;;;;;;;;;;;;;4131253;28;7023;-54
2021/12/19 02:37:10;;;;;;;;;;;;;;;;;;4131068;28;8675;-54
2021/12/19 02:50:15;;;;;;;;;;;;;;;;;;4131425;28;7025;-54
2021/12/19 02:52:38;;;;;;;;;;;;;;;;;;4131847;28;6982;-54
2021/12/19 02:54:59;;;;;;;;;;;;;;;;;;4131386;28;7010;-54
2021/12/19 02:57:20;;;;;;;;;;;;;;;;;;4131480;28;7125;-54
2021/12/19 02:59:41;;;;;;;;;;;;;;;;;;4131590;28;7057;-54
2021/12/19 03:02:03;;;;;;;;;;;;;;;;;;4131417;28;7151;-54
2021/12/19 03:04:24;;;;;;;;;;;;;;;;;;4131463;28;7085;-54
2021/12/19 03:06:46;;;;;;;;;;;;;;;;;;4131534;28;7027;-53
2021/12/19 03:09:10;;;;;;;;;;;;;;;;;;4131458;28;7012;-53
2021/12/19 03:12:04;;;;;;;;;;;;;;;;;;4131353;28;7140;-54
2021/12/19 03:19:45;;;;;;;;;;;;;;;;;;4125023;28;7070;-54
2021/12/19 03:22:07;;;;;;;;;;;;;;;;;;4131574;28;7448;-53
2021/12/19 03:24:29;;;;;;;;;;;;;;;;;;4131269;28;7007;-54
2021/12/19 03:26:51;;;;;;;;;;;;;;;;;;4132583;28;7023;-54
2021/12/19 03:29:12;;;;;;;;;;;;;;;;;;4134171;28;7054;-54
2021/12/19 03:31:34;;;;;;;;;;;;;;;;;;4134375;28;7050;-53
2021/12/19 03:33:55;;;;;;;;;;;;;;;;;;4134262;28;7132;-53
2021/12/19 03:36:16;;;;;;;;;;;;;;;;;;4134107;28;7014;-54
2021/12/19 03:38:41;;;;;;;;;;;;;;;;;;4133844;28;6999;-54
2021/12/19 03:41:14;;;;;;;;;;;;;;;;;;4134254;28;7149;-55
2021/12/19 03:43:35;;;;;;;;;;;;;;;;;;4133871;28;7222;-53
2021/12/19 03:45:57;;;;;;;;;;;;;;;;;;4134178;28;7041;-54
2021/12/19 03:48:19;;;;;;;;;;;;;;;;;;4133932;28;7038;-54
2021/12/19 03:50:43;;;;;;;;;;;;;;;;;;4133810;28;7042;-53
2021/12/19 03:53:04;;;;;;;;;;;;;;;;;;4134048;28;7065;-54
2021/12/19 03:55:25;;;;;;;;;;;;;;;;;;4133797;28;7002;-54
2021/12/19 03:57:48;;;;;;;;;;;;;;;;;;4133350;28;7463;-54
2021/12/19 04:00:10;;;;;;;;;;;;;;;;;;4133751;28;7030;-54
2021/12/19 04:02:32;;;;;;;;;;;;;;;;;;4134048;28;7149;-53
2021/12/19 04:04:53;;;;;;;;;;;;;;;;;;4133839;28;7023;-54
2021/12/19 04:07:14;;;;;;;;;;;;;;;;;;4133570;28;7603;-54
2021/12/19 04:09:36;;;;;;;;;;;;;;;;;;4133708;28;7133;-54
2021/12/19 04:11:57;;;;;;;;;;;;;;;;;;4133503;28;7050;-54
2021/12/19 04:14:20;;;;;;;;;;;;;;;;;;4133343;28;7008;-54
2021/12/19 04:16:43;;;;;;;;;;;;;;;;;;4133297;28;7162;-54
2021/12/19 04:19:04;;;;;;;;;;;;;;;;;;4133540;28;7101;-54
2021/12/19 04:21:25;;;;;;;;;;;;;;;;;;4133392;28;7002;-54
2021/12/19 04:23:47;;;;;;;;;;;;;;;;;;4133315;28;6999;-54
2021/12/19 04:26:08;;;;;;;;;;;;;;;;;;4133470;28;7053;-53
2021/12/19 04:28:29;;;;;;;;;;;;;;;;;;4133472;28;7479;-54
2021/12/19 04:30:52;;;;;;;;;;;;;;;;;;4133472;28;7569;-54
2021/12/19 04:33:13;;;;;;;;;;;;;;;;;;4133278;28;7045;-53
2021/12/19 04:35:36;;;;;;;;;;;;;;;;;;4133215;28;7061;-53
2021/12/19 04:41:07;;;;;;;;;;;;;;;;;;4133230;28;7055;-54
2021/12/19 04:52:03;;;;;;;;;;;;;;;;;;4133033;28;7007;-53
2021/12/19 04:54:35;;;;;;;;;;;;;;;;;;4133181;28;7003;-53
2021/12/19 04:57:08;;;;;;;;;;;;;;;;;;4132868;28;6991;-54
2021/12/19 04:59:52;;;;;;;;;;;;;;;;;;4132693;28;7542;-54
2021/12/19 05:02:26;;;;;;;;;;;;;;;;;;4133042;28;7053;-53
2021/12/19 05:15:30;;;;;;;;;;;;;;;;;;4195134;28;7227;-53
2021/12/19 05:17:53;;;;;;;;;;;;;;;;;;4194883;28;7090;-53
2021/12/19 05:20:16;;;;;;;;;;;;;;;;;;4194868;28;7451;-54
2021/12/19 05:22:46;;;;;;;;;;;;;;;;;;4195048;28;7146;-54
2021/12/19 05:25:14;;;;;;;;;;;;;;;;;;4195159;28;7010;-54
2021/12/19 05:27:35;;;;;;;;;;;;;;;;;;4194803;28;7166;-54
2021/12/19 05:29:56;;;;;;;;;;;;;;;;;;4194984;28;7019;-54
2021/12/19 05:32:18;;;;;;;;;;;;;;;;;;4194578;28;7015;-54
2021/12/19 05:34:40;;;;;;;;;;;;;;;;;;4194508;28;7151;-53
2021/12/19 05:45:15;;;;;;;;;;;;;;;;;;4194697;28;7362;-53
2021/12/19 05:47:36;;;;;;;;;;;;;;;;;;4194487;28;7171;-53
2021/12/19 05:49:57;;;;;;;;;;;;;;;;;;4194635;28;7040;-53
2021/12/19 05:52:19;;;;;;;;;;;;;;;;;;4194319;28;7060;-53
2021/12/19 05:54:42;;;;;;;;;;;;;;;;;;4194434;28;7018;-54
2021/12/19 05:57:03;;;;;;;;;;;;;;;;;;4194178;28;6999;-54
2021/12/19 05:59:24;;;;;;;;;;;;;;;;;;4194288;28;7022;-53
2021/12/19 06:01:46;;;;;;;;;;;;;;;;;;4194301;28;7009;-53
2021/12/19 06:04:07;;;;;;;;;;;;;;;;;;4194246;28;7012;-54
2021/12/19 06:06:29;;;;;;;;;;;;;;;;;;4193956;28;7053;-53
2021/12/19 06:08:50;;;;;;;;;;;;;;;;;;4194201;28;7588;-53
2021/12/19 06:11:14;;;;;;;;;;;;;;;;;;4194162;28;6994;-54
2021/12/19 06:13:37;;;;;;;;;;;;;;;;;;4194079;28;7611;-53
2021/12/19 06:15:59;;;;;;;;;;;;;;;;;;4194083;28;7426;-54
2021/12/19 06:18:20;;;;;;;;;;;;;;;;;;4186096;28;7002;-54
2021/12/19 06:20:41;;;;;;;;;;;;;;;;;;4183051;28;7002;-54
2021/12/19 06:23:03;;;;;;;;;;;;;;;;;;4181527;28;7175;-54
2021/12/19 06:25:24;;;;;;;;;;;;;;;;;;4183013;28;7229;-54
2021/12/19 06:27:46;;;;;;;;;;;;;;;;;;4182685;28;7039;-55
2021/12/19 06:30:08;;;;;;;;;;;;;;;;;;4182955;28;7634;-54
2021/12/19 06:32:29;;;;;;;;;;;;;;;;;;4182618;28;7006;-54
2021/12/19 06:34:50;;;;;;;;;;;;;;;;;;4182094;28;7697;-53
2021/12/19 06:37:12;;;;;;;;;;;;;;;;;;4182640;28;7002;-54
2021/12/19 06:39:33;;;;;;;;;;;;;;;;;;4182560;28;7010;-54
2021/12/19 06:41:54;;;;;;;;;;;;;;;;;;4182071;28;7399;-54
2021/12/19 06:44:17;;;;;;;;;;;;;;;;;;4181011;28;7006;-54
2021/12/19 06:46:38;;;;;;;;;;;;;;;;;;4181054;28;7002;-54
2021/12/19 06:49:00;;;;;;;;;;;;;;;;;;4182540;28;7006;-54
2021/12/19 06:51:21;;;;;;;;;;;;;;;;;;4182183;28;7746;-54
2021/12/19 06:53:43;;;;;;;;;;;;;;;;;;4182355;28;7006;-53
2021/12/19 06:56:05;;;;;;;;;;;;;;;;;;4182531;28;7056;-54
2021/12/19 06:58:26;;;;;;;;;;;;;;;;;;4182533;28;7037;-54
2021/12/19 07:00:49;;;;;;;;;;;;;;;;;;4181904;28;7063;-53
2021/12/19 07:03:11;;;;;;;;;;;;;;;;;;4182155;28;7010;-54
2021/12/19 07:05:33;;;;;;;;;;;;;;;;;;4182180;28;7518;-54
2021/12/19 07:07:54;;;;;;;;;;;;;;;;;;4188744;28;7214;-53
2021/12/19 07:10:15;;;;;;;;;;;;;;;;;;4182449;28;7006;-55
2021/12/19 07:12:37;;;;;;;;;;;;;;;;;;4182392;28;7169;-54
2021/12/19 07:14:58;;;;;;;;;;;;;;;;;;4182168;28;7025;-54
2021/12/19 07:17:21;;;;;;;;;;;;;;;;;;4182010;28;6991;-54
2021/12/19 07:19:42;;;;;;;;;;;;;;;;;;4182239;28;7002;-54
2021/12/19 07:22:04;;;;;;;;;;;;;;;;;;4182181;28;7003;-54
2021/12/19 07:24:25;;;;;;;;;;;;;;;;;;4182007;28;7025;-54
2021/12/19 07:26:47;;;;;;;;;;;;;;;;;;4182034;28;7157;-56
2021/12/19 07:29:08;;;;;;;;;;;;;;;;;;4181231;28;7143;-54
2021/12/19 07:31:35;;;;;;;;;;;;;;;;;;4181848;28;7101;-54
2021/12/19 07:33:57;;;;;;;;;;;;;;;;;;4181894;28;7002;-55
2021/12/19 07:36:19;;;;;;;;;;;;;;;;;;4181748;28;7045;-55
2021/12/19 07:38:51;;;;;;;;;;;;;;;;;;4181863;28;6999;-55
2021/12/19 07:41:12;;;;;;;;;;;;;;;;;;4181064;28;7007;-54
2021/12/19 07:43:34;;;;;;;;;;;;;;;;;;4181785;28;8081;-55
2021/12/19 07:45:56;;;;;;;;;;;;;;;;;;4180694;28;7002;-54
2021/12/19 07:48:17;;;;;;;;;;;;;;;;;;4181194;28;7019;-54
2021/12/19 07:50:40;;;;;;;;;;;;;;;;;;4181564;28;7093;-54
2021/12/19 07:53:03;;;;;;;;;;;;;;;;;;4178878;28;7490;-54
2021/12/19 07:55:25;;;;;;;;;;;;;;;;;;4179514;28;7006;-54
2021/12/19 07:57:46;;;;;;;;;;;;;;;;;;4181666;28;6985;-54
2021/12/19 08:00:08;;;;;;;;;;;;;;;;;;4179875;28;7006;-54
2021/12/19 08:02:35;;;;;;;;;;;;;;;;;;4181162;28;7092;-54
2021/12/19 08:04:57;;;;;;;;;;;;;;;;;;4181438;28;7085;-54
2021/12/19 08:07:23;;;;;;;;;;;;;;;;;;4181223;28;7269;-53
2021/12/19 08:09:59;;;;;;;;;;;;;;;;;;4181329;28;7442;-54
2021/12/19 08:12:20;;;;;;;;;;;;;;;;;;4181093;28;7006;-53
2021/12/19 08:14:41;;;;;;;;;;;;;;;;;;4181301;28;7022;-54
2021/12/19 08:17:03;;;;;;;;;;;;;;;;;;4181226;28;7044;-54
2021/12/19 08:19:24;;;;;;;;;;;;;;;;;;4180981;28;7058;-54
2021/12/19 08:21:45;;;;;;;;;;;;;;;;;;4181077;28;7022;-54
2021/12/19 08:24:11;;;;;;;;;;;;;;;;;;4181152;28;7010;-54
2021/12/19 08:26:32;;;;;;;;;;;;;;;;;;4180733;28;7014;-54
2021/12/19 08:28:53;;;;;;;;;;;;;;;;;;4180891;28;7002;-54
2021/12/19 08:31:15;;;;;;;;;;;;;;;;;;4180940;28;7025;-54
2021/12/19 08:33:36;;;;;;;;;;;;;;;;;;4180520;28;7135;-54
2021/12/19 08:35:59;;;;;;;;;;;;;;;;;;4179246;28;7006;-54
2021/12/19 08:38:21;;;;;;;;;;;;;;;;;;4176910;28;7184;-54
2021/12/19 08:40:49;;;;;;;;;;;;;;;;;;4179836;28;7014;-54
2021/12/19 08:43:13;;;;;;;;;;;;;;;;;;4178269;28;7006;-54
2021/12/19 08:45:39;;;;;;;;;;;;;;;;;;4179315;28;7287;-53
2021/12/19 08:48:09;;;;;;;;;;;;;;;;;;4180398;28;7042;-54
2021/12/19 08:50:33;;;;;;;;;;;;;;;;;;4178817;28;7002;-54
2021/12/19 08:52:56;;;;;;;;;;;;;;;;;;4178801;28;7003;-54
2021/12/19 08:55:17;;;;;;;;;;;;;;;;;;4178905;28;7006;-53
2021/12/19 08:58:06;;;;;;;;;;;;;;;;;;4173622;28;7088;-53
2021/12/19 09:00:27;;;;;;;;;;;;;;;;;;4179958;28;7184;-53
2021/12/19 09:02:51;;;;;;;;;;;;;;;;;;4180083;28;6986;-54
2021/12/19 09:05:13;;;;;;;;;;;;;;;;;;4177965;28;7014;-54
2021/12/19 09:07:35;;;;;;;;;;;;;;;;;;4178123;28;7018;-53
2021/12/19 09:10:03;;;;;;;;;;;;;;;;;;4178838;28;7006;-53
2021/12/19 09:12:27;;;;;;;;;;;;;;;;;;4179758;28;7116;-53
2021/12/19 09:14:50;;;;;;;;;;;;;;;;;;4177373;28;7062;-53
2021/12/19 09:17:12;;;;;;;;;;;;;;;;;;4180236;28;7018;-53
2021/12/19 09:19:33;;;;;;;;;;;;;;;;;;4179995;28;7042;-53
2021/12/19 09:21:55;;;;;;;;;;;;;;;;;;4179967;28;7007;-54
2021/12/19 09:24:16;;;;;;;;;;;;;;;;;;4180405;28;7491;-53
2021/12/19 09:26:37;;;;;;;;;;;;;;;;;;4180280;28;7143;-53
2021/12/19 09:28:59;;;;;;;;;;;;;;;;;;4180454;28;7130;-54
2021/12/19 09:31:23;;;;;;;;;;;;;;;;;;4180420;28;7399;-55
2021/12/19 09:33:45;;;;;;;;;;;;;;;;;;4180407;28;7135;-53
2021/12/19 09:36:06;;;;;;;;;;;;;;;;;;4180404;28;7161;-54
2021/12/19 09:38:28;;;;;;;;;;;;;;;;;;4180688;28;7026;-56
2021/12/19 09:40:49;;;;;;;;;;;;;;;;;;4180525;28;7010;-56
2021/12/19 09:43:31;;;;;;;;;;;;;;;;;;4180071;28;7170;-56
2021/12/19 09:45:53;;;;;;;;;;;;;;;;;;4180489;28;7107;-55
2021/12/19 09:48:16;;;;;;;;;;;;;;;;;;4179962;28;7072;-56
2021/12/19 09:50:37;;;;;;;;;;;;;;;;;;4207469;28;7002;-53
2021/12/19 09:52:58;;;;;;;;;;;;;;;;;;4181409;28;7006;-53
2021/12/19 09:55:21;;;;;;;;;;;;;;;;;;4183569;28;7006;-53
2021/12/19 09:57:42;;;;;;;;;;;;;;;;;;4183692;28;7020;-53
2021/12/19 10:00:04;;;;;;;;;;;;;;;;;;4183702;28;7002;-53
2021/12/19 10:02:35;;;;;;;;;;;;;;;;;;4183579;28;7001;-53
2021/12/19 10:04:58;;;;;;;;;;;;;;;;;;4183476;28;7013;-53
2021/12/19 10:07:19;;;;;;;;;;;;;;;;;;4183350;28;7186;-53
2021/12/19 10:09:50;;;;;;;;;;;;;;;;;;4183225;28;7656;-54
2021/12/19 10:12:24;;;;;;;;;;;;;;;;;;4183633;28;7234;-54
2021/12/19 10:14:46;;;;;;;;;;;;;;;;;;4183314;28;7002;-54
2021/12/19 10:17:08;;;;;;;;;;;;;;;;;;4183440;28;7018;-54
2021/12/19 10:19:42;;;;;;;;;;;;;;;;;;4183315;28;7019;-54
2021/12/19 10:22:05;;;;;;;;;;;;;;;;;;4183306;28;7022;-54
2021/12/19 10:24:30;;;;;;;;;;;;;;;;;;4183067;28;7014;-54
2021/12/19 10:26:50;;;;;;;;;;;;;;;;;;4183299;28;7036;-54
2021/12/19 10:29:12;;;;;;;;;;;;;;;;;;4183146;28;7006;-54
2021/12/19 10:31:33;;;;;;;;;;;;;;;;;;4183179;28;7150;-54
2021/12/19 10:33:55;;;;;;;;;;;;;;;;;;4182814;28;7006;-54
2021/12/19 10:36:17;;;;;;;;;;;;;;;;;;4182897;28;7005;-55
2021/12/19 10:38:42;;;;;;;;;;;;;;;;;;4182925;28;7026;-54
2021/12/19 10:41:04;;;;;;;;;;;;;;;;;;4182758;28;7022;-55
2021/12/19 10:43:27;;;;;;;;;;;;;;;;;;4182815;28;7127;-54
2021/12/19 10:45:49;;;;;;;;;;;;;;;;;;4182875;28;7477;-54
2021/12/19 10:48:17;;;;;;;;;;;;;;;;;;4182857;28;6970;-54
2021/12/19 10:50:45;;;;;;;;;;;;;;;;;;4182785;28;7006;-54
2021/12/19 10:53:07;;;;;;;;;;;;;;;;;;4182539;28;7169;-54
2021/12/19 10:55:32;;;;;;;;;;;;;;;;;;4182135;28;7007;-54
2021/12/19 10:57:54;;;;;;;;;;;;;;;;;;4181272;28;7009;-54
2021/12/19 11:00:23;;;;;;;;;;;;;;;;;;4181071;28;6994;-55
2021/12/19 11:02:44;;;;;;;;;;;;;;;;;;4181037;28;7002;-54
2021/12/19 11:05:06;;;;;;;;;;;;;;;;;;4180895;28;7015;-54
2021/12/19 11:07:27;;;;;;;;;;;;;;;;;;4180446;28;7026;-54
2021/12/19 11:09:49;;;;;;;;;;;;;;;;;;4181282;28;7033;-54
2021/12/19 11:12:12;;;;;;;;;;;;;;;;;;4181019;28;7118;-55
2021/12/19 11:14:37;;;;;;;;;;;;;;;;;;4180577;28;7242;-54
2021/12/19 11:16:59;;;;;;;;;;;;;;;;;;4164409;28;7188;-54
2021/12/19 11:19:20;;;;;;;;;;;;;;;;;;4164302;28;7034;-54
2021/12/19 11:21:42;;;;;;;;;;;;;;;;;;4164075;28;7112;-54
2021/12/19 11:24:04;;;;;;;;;;;;;;;;;;4164503;28;7002;-54
2021/12/19 11:26:25;;;;;;;;;;;;;;;;;;4164228;28;7250;-54
2021/12/19 11:28:48;;;;;;;;;;;;;;;;;;4164103;28;7168;-54
2021/12/19 11:31:09;;;;;;;;;;;;;;;;;;4164324;28;7049;-54
2021/12/19 11:33:34;;;;;;;;;;;;;;;;;;4164267;28;7018;-54
2021/12/19 11:35:55;;;;;;;;;;;;;;;;;;4163975;28;7497;-54
2021/12/19 11:38:18;;;;;;;;;;;;;;;;;;4163849;28;7015;-54
2021/12/19 11:40:39;;;;;;;;;;;;;;;;;;4163989;28;7120;-54
2021/12/19 11:43:01;;;;;;;;;;;;;;;;;;4163829;28;7010;-54
2021/12/19 11:45:32;;;;;;;;;;;;;;;;;;4164072;28;7006;-54
2021/12/19 11:47:56;;;;;;;;;;;;;;;;;;4181833;28;7018;-55
2021/12/19 11:50:22;;;;;;;;;;;;;;;;;;4187795;28;7158;-54
2021/12/19 11:52:43;;;;;;;;;;;;;;;;;;4186553;28;7011;-54
2021/12/19 11:55:35;;;;;;;;;;;;;;;;;;4183580;28;7018;-54
2021/12/19 11:58:14;;;;;;;;;;;;;;;;;;4187157;28;7095;-54
2021/12/19 12:00:38;;;;;;;;;;;;;;;;;;4189984;28;7054;-56
2021/12/19 12:03:15;;;;;;;;;;;;;;;;;;4187536;28;7042;-55
2021/12/19 12:05:36;;;;;;;;;;;;;;;;;;4189490;28;7580;-54
2021/12/19 12:08:13;;;;;;;;;;;;;;;;;;4190176;28;6990;-54
2021/12/19 12:10:46;;;;;;;;;;;;;;;;;;4184033;28;7006;-55
2021/12/19 12:13:07;;;;;;;;;;;;;;;;;;4181569;28;7002;-54
2021/12/19 12:15:34;;;;;;;;;;;;;;;;;;4187335;28;7022;-54
2021/12/19 12:17:58;;;;;;;;;;;;;;;;;;4186714;28;7095;-54
2021/12/19 12:20:20;;;;;;;;;;;;;;;;;;4193276;28;7573;-54
2021/12/19 12:22:50;;;;;;;;;;;;;;;;;;4184811;28;7103;-55
2021/12/19 12:25:17;;;;;;;;;;;;;;;;;;4189599;28;7191;-54
2021/12/19 12:27:38;;;;;;;;;;;;;;;;;;4163336;28;7007;-54
2021/12/19 12:30:00;;;;;;;;;;;;;;;;;;4163247;28;7023;-54
2021/12/19 12:32:21;;;;;;;;;;;;;;;;;;4178577;28;7021;-54
2021/12/19 12:34:44;;;;;;;;;;;;;;;;;;4179507;28;7023;-54
2021/12/19 12:37:05;;;;;;;;;;;;;;;;;;4178543;28;6990;-54
2021/12/19 12:39:37;;;;;;;;;;;;;;;;;;4174368;28;7141;-54
2021/12/19 12:42:03;;;;;;;;;;;;;;;;;;4169001;28;7028;-54
2021/12/19 12:44:24;;;;;;;;;;;;;;;;;;4172096;28;7010;-54
2021/12/19 12:46:45;;;;;;;;;;;;;;;;;;4176675;28;7059;-54
2021/12/19 12:49:07;;;;;;;;;;;;;;;;;;4175778;28;7018;-54
2021/12/19 12:51:31;;;;;;;;;;;;;;;;;;4166820;28;7022;-54
2021/12/19 12:53:53;;;;;;;;;;;;;;;;;;4177660;28;7006;-55
2021/12/19 12:56:15;;;;;;;;;;;;;;;;;;4164433;28;6986;-54
2021/12/19 12:58:40;;;;;;;;;;;;;;;;;;4175843;28;7006;-54
2021/12/19 13:01:21;;;;;;;;;;;;;;;;;;4179223;28;7031;-54
2021/12/19 13:04:03;;;;;;;;;;;;;;;;;;4179096;28;7002;-54
2021/12/19 13:06:36;;;;;;;;;;;;;;;;;;4179002;28;7006;-54
2021/12/19 13:09:07;;;;;;;;;;;;;;;;;;4179382;28;6978;-54
2021/12/19 13:11:30;;;;;;;;;;;;;;;;;;4179139;28;7021;-54
2021/12/19 13:13:52;;;;;;;;;;;;;;;;;;4179391;28;7029;-54
2021/12/19 13:16:13;;;;;;;;;;;;;;;;;;4178330;28;7513;-55
2021/12/19 13:18:44;;;;;;;;;;;;;;;;;;4174120;28;7019;-54
2021/12/19 13:21:05;;;;;;;;;;;;;;;;;;4177410;28;7019;-54
2021/12/19 13:23:28;;;;;;;;;;;;;;;;;;4176733;28;7006;-54
2021/12/19 13:25:50;;;;;;;;;;;;;;;;;;4173847;28;7006;-54
2021/12/19 13:28:11;;;;;;;;;;;;;;;;;;4177638;28;7428;-55
2021/12/19 13:30:33;;;;;;;;;;;;;;;;;;4182679;28;7006;-54
2021/12/19 13:32:54;;;;;;;;;;;;;;;;;;4182216;28;7005;-54
2021/12/19 13:35:17;;;;;;;;;;;;;;;;;;4175477;28;7223;-54
2021/12/19 13:37:48;;;;;;;;;;;;;;;;;;4177769;28;6990;-54
2021/12/19 13:40:12;;;;;;;;;;;;;;;;;;4182200;28;7576;-55
2021/12/19 13:42:49;;;;;;;;;;;;;;;;;;4182290;28;7140;-54
2021/12/19 13:45:21;;;;;;;;;;;;;;;;;;4181229;28;7369;-53
2021/12/19 13:47:43;;;;;;;;;;;;;;;;;;4181913;28;7014;-55
2021/12/19 13:50:05;;;;;;;;;;;;;;;;;;4181666;28;7043;-56
2021/12/19 13:52:26;;;;;;;;;;;;;;;;;;4181895;28;7029;-56
2021/12/19 13:54:48;;;;;;;;;;;;;;;;;;4179253;28;6986;-56
2021/12/19 13:57:18;;;;;;;;;;;;;;;;;;4177462;28;7006;-55
2021/12/19 13:59:39;;;;;;;;;;;;;;;;;;4175348;28;7356;-55
2021/12/19 14:02:00;;;;;;;;;;;;;;;;;;4181421;28;7081;-53
2021/12/19 14:04:23;;;;;;;;;;;;;;;;;;4180972;28;7386;-55
2021/12/19 14:06:46;;;;;;;;;;;;;;;;;;4180834;28;7022;-55
2021/12/19 14:09:08;;;;;;;;;;;;;;;;;;4165321;28;7423;-55
2021/12/19 14:11:29;;;;;;;;;;;;;;;;;;4174329;28;7459;-55
2021/12/19 14:14:04;;;;;;;;;;;;;;;;;;4179312;28;7553;-56
2021/12/19 14:16:29;;;;;;;;;;;;;;;;;;4180981;28;7502;-53
2021/12/19 14:18:51;;;;;;;;;;;;;;;;;;4181508;28;7010;-55
2021/12/19 14:21:34;;;;;;;;;;;;;;;;;;4164342;28;7037;-55
2021/12/19 14:24:07;;;;;;;;;;;;;;;;;;4178534;28;7532;-55
2021/12/19 14:26:29;;;;;;;;;;;;;;;;;;4165140;28;7380;-55
2021/12/19 14:28:51;;;;;;;;;;;;;;;;;;4164959;28;7008;-55
2021/12/19 14:31:13;;;;;;;;;;;;;;;;;;4164715;28;7263;-55
2021/12/19 14:33:35;;;;;;;;;;;;;;;;;;4166664;28;6994;-55
2021/12/19 14:35:56;;;;;;;;;;;;;;;;;;4180051;28;7054;-55
2021/12/19 14:38:17;;;;;;;;;;;;;;;;;;4179763;28;7133;-55
2021/12/19 14:40:40;;;;;;;;;;;;;;;;;;4181365;28;7199;-56
2021/12/19 14:43:03;;;;;;;;;;;;;;;;;;4181220;28;7043;-55
2021/12/19 14:45:25;;;;;;;;;;;;;;;;;;4180951;28;7024;-56
2021/12/19 14:47:49;;;;;;;;;;;;;;;;;;4181168;28;7151;-56
2021/12/19 14:50:12;;;;;;;;;;;;;;;;;;4180754;28;6987;-55
2021/12/19 14:52:33;;;;;;;;;;;;;;;;;;4180781;28;7043;-56
2021/12/19 14:55:07;;;;;;;;;;;;;;;;;;4179066;28;7002;-56
2021/12/19 14:57:28;;;;;;;;;;;;;;;;;;4180097;28;7015;-56
2021/12/19 14:59:50;;;;;;;;;;;;;;;;;;4180368;28;7171;-55
2021/12/19 15:02:11;;;;;;;;;;;;;;;;;;4180608;28;7022;-56
2021/12/19 15:04:34;;;;;;;;;;;;;;;;;;4180285;28;7015;-55
2021/12/19 15:06:59;;;;;;;;;;;;;;;;;;4180039;28;7002;-56
2021/12/19 15:09:21;;;;;;;;;;;;;;;;;;4180755;28;7175;-55
2021/12/19 15:11:42;;;;;;;;;;;;;;;;;;4180595;28;7162;-55
2021/12/19 15:14:04;;;;;;;;;;;;;;;;;;4180195;28;7014;-58
2021/12/19 15:16:25;;;;;;;;;;;;;;;;;;4180511;28;7010;-56
2021/12/19 15:18:46;;;;;;;;;;;;;;;;;;4180025;28;7037;-55
2021/12/19 15:21:09;;;;;;;;;;;;;;;;;;4165040;28;6986;-58
2021/12/19 15:23:31;;;;;;;;;;;;;;;;;;4175907;28;7018;-56
2021/12/19 15:25:52;;;;;;;;;;;;;;;;;;4176261;28;7051;-54
2021/12/19 15:28:13;;;;;;;;;;;;;;;;;;4174945;28;7059;-56
2021/12/19 15:30:35;;;;;;;;;;;;;;;;;;4178641;28;7269;-55
2021/12/19 15:32:57;;;;;;;;;;;;;;;;;;4177605;28;7052;-56
2021/12/19 15:35:18;;;;;;;;;;;;;;;;;;4178351;28;7108;-56
2021/12/19 15:37:41;;;;;;;;;;;;;;;;;;4177937;28;7162;-56
2021/12/19 15:40:03;;;;;;;;;;;;;;;;;;4175289;28;7045;-56
2021/12/19 15:42:24;;;;;;;;;;;;;;;;;;4162982;28;7002;-57
2021/12/19 15:44:46;;;;;;;;;;;;;;;;;;4162716;28;7053;-56
2021/12/19 15:47:07;;;;;;;;;;;;;;;;;;4163162;28;7213;-56
2021/12/19 15:49:28;;;;;;;;;;;;;;;;;;4176414;28;7006;-57
2021/12/19 15:51:50;;;;;;;;;;;;;;;;;;4178468;28;7014;-56
2021/12/19 15:54:12;;;;;;;;;;;;;;;;;;4172018;28;7183;-56
2021/12/19 15:56:33;;;;;;;;;;;;;;;;;;4162882;28;7061;-55
2021/12/19 15:58:55;;;;;;;;;;;;;;;;;;4178868;28;7210;-58
2021/12/19 16:01:17;;;;;;;;;;;;;;;;;;4163102;28;7061;-57
2021/12/19 16:03:38;;;;;;;;;;;;;;;;;;4162721;28;7030;-56
2021/12/19 16:06:00;;;;;;;;;;;;;;;;;;4162515;28;7022;-57
2021/12/19 16:08:21;;;;;;;;;;;;;;;;;;4162477;28;7325;-56
2021/12/19 16:10:44;;;;;;;;;;;;;;;;;;4168285;28;7055;-57
2021/12/19 16:13:05;;;;;;;;;;;;;;;;;;4176606;28;7295;-57
2021/12/19 16:15:26;;;;;;;;;;;;;;;;;;4172592;28;6994;-57
2021/12/19 16:17:49;;;;;;;;;;;;;;;;;;4178759;28;7042;-57
2021/12/19 16:20:10;;;;;;;;;;;;;;;;;;4177843;28;7116;-57
2021/12/19 16:22:31;;;;;;;;;;;;;;;;;;4177821;28;7010;-57
2021/12/19 16:24:56;;;;;;;;;;;;;;;;;;4178268;28;7290;-56
2021/12/19 16:27:19;;;;;;;;;;;;;;;;;;4178927;28;7393;-57
2021/12/19 16:29:40;;;;;;;;;;;;;;;;;;4178116;28;7403;-56
2021/12/19 16:32:01;;;;;;;;;;;;;;;;;;4163061;28;7058;-57
2021/12/19 16:34:23;;;;;;;;;;;;;;;;;;4178366;28;7174;-57
2021/12/19 16:36:44;;;;;;;;;;;;;;;;;;4178715;28;7191;-56
2021/12/19 16:39:07;;;;;;;;;;;;;;;;;;4178782;28;6995;-57
2021/12/19 16:41:42;;;;;;;;;;;;;;;;;;4163161;28;7032;-57
2021/12/19 16:44:05;;;;;;;;;;;;;;;;;;4171574;28;7017;-57
2021/12/19 16:46:26;;;;;;;;;;;;;;;;;;4164584;28;7112;-57
2021/12/19 16:48:48;;;;;;;;;;;;;;;;;;4178934;28;7026;-57
2021/12/19 16:51:09;;;;;;;;;;;;;;;;;;4167547;28;7026;-57
2021/12/19 16:53:31;;;;;;;;;;;;;;;;;;4170073;28;7038;-56
2021/12/19 16:55:52;;;;;;;;;;;;;;;;;;4168799;28;7008;-57
2021/12/19 16:58:13;;;;;;;;;;;;;;;;;;4175359;28;7046;-57
2021/12/19 17:00:36;;;;;;;;;;;;;;;;;;4173391;28;7161;-57
2021/12/19 17:02:58;;;;;;;;;;;;;;;;;;4173060;28;7019;-57
2021/12/19 17:05:20;;;;;;;;;;;;;;;;;;4172775;28;9032;-57
2021/12/19 17:07:42;;;;;;;;;;;;;;;;;;4170010;28;7022;-57
2021/12/19 17:10:03;;;;;;;;;;;;;;;;;;4162494;28;7589;-57
2021/12/19 17:12:25;;;;;;;;;;;;;;;;;;4173386;28;7023;-57
2021/12/19 17:14:46;;;;;;;;;;;;;;;;;;4163197;28;7410;-57
2021/12/19 17:17:09;;;;;;;;;;;;;;;;;;4173162;28;7341;-57
2021/12/19 17:19:31;;;;;;;;;;;;;;;;;;4171404;28;7199;-57
2021/12/19 17:21:52;;;;;;;;;;;;;;;;;;4173639;28;7047;-56
2021/12/19 17:24:14;;;;;;;;;;;;;;;;;;4174825;28;7018;-57
2021/12/19 17:26:35;;;;;;;;;;;;;;;;;;4175479;28;7313;-57
2021/12/19 17:28:56;;;;;;;;;;;;;;;;;;4172129;28;7529;-57